Time;durP1;ratioP1;P1;durP2;ratioP2;P2;SDS_P1;SDS_P2;PMS_P1;PMS_P2;Temp;Humidity;BMP_temperature;BMP_pressure;BME280_temperature;BME280_humidity;BME280_pressure;Samples;Min_cycle;Max_cycle;Signal;HPM_P1;HPM_P2
2021/05/14 00:01:57;;;;;;;;;;;16.50;59.70;;;;;;5054073;28;19908;-68
2021/05/14 00:04:23;;;;;;;;;;;16.50;59.70;;;;;;5053950;28;19904;-68
2021/05/14 00:06:49;;;;;;;;;;;16.40;59.70;;;;;;5053818;28;20282;-68
2021/05/14 00:09:15;;;;;;;;;;;16.40;59.80;;;;;;5053923;28;19904;-68
2021/05/14 00:11:41;;;;;;;;;;;16.40;59.80;;;;;;5053859;28;19905;-68
2021/05/14 00:14:07;;;;;;;;;;;16.50;59.90;;;;;;5035938;28;19955;-68
2021/05/14 00:16:33;;;;;;;;;;;16.50;59.90;;;;;;5053740;28;19905;-68
2021/05/14 00:18:59;;;;;;;;;;;16.50;59.90;;;;;;5035853;28;20343;-68
2021/05/14 00:21:28;;;;;;;;;;;16.50;59.80;;;;;;5035725;28;19927;-68
2021/05/14 00:23:54;;;;;;;;;;;16.50;59.80;;;;;;5053667;28;19924;-68
2021/05/14 00:26:20;;;;;;;;;;;16.50;59.80;;;;;;5053808;28;19904;-68
2021/05/14 00:28:45;;;;;;;;;;;16.40;59.80;;;;;;5057634;28;19905;-68
2021/05/14 00:31:11;;;;;;;;;;;16.50;59.90;;;;;;5073091;28;19904;-68
2021/05/14 00:33:37;;;;;;;;;;;16.50;59.90;;;;;;5073123;28;19905;-68
2021/05/14 00:36:02;;;;;;;;;;;16.50;59.90;;;;;;5072946;28;19904;-68
2021/05/14 00:38:28;;;;;;;;;;;16.50;59.90;;;;;;5057477;28;19908;-68
2021/05/14 00:40:53;;;;;;;;;;;16.50;60.00;;;;;;5039818;28;19905;-68
2021/05/14 00:43:19;;;;;;;;;;;16.50;60.00;;;;;;5057399;28;20271;-68
2021/05/14 00:45:44;;;;;;;;;;;16.50;60.00;;;;;;5057446;28;20359;-67
2021/05/14 00:48:10;;;;;;;;;;;16.50;60.00;;;;;;5057436;28;19905;-68
2021/05/14 00:50:36;;;;;;;;;;;16.50;60.00;;;;;;5057366;28;20343;-67
2021/05/14 00:53:01;;;;;;;;;;;16.50;60.00;;;;;;5057214;28;19927;-68
2021/05/14 00:55:27;;;;;;;;;;;16.50;60.00;;;;;;5057207;28;19905;-68
2021/05/14 00:57:52;;;;;;;;;;;16.50;60.00;;;;;;5057182;28;19928;-68
2021/05/14 01:00:18;;;;;;;;;;;16.50;60.00;;;;;;5072595;28;19905;-68
2021/05/14 01:02:44;;;;;;;;;;;16.50;60.10;;;;;;5072653;28;19919;-68
2021/05/14 01:05:10;;;;;;;;;;;16.50;60.10;;;;;;5038993;28;19915;-68
2021/05/14 01:07:35;;;;;;;;;;;16.50;60.10;;;;;;5038932;28;19954;-68
2021/05/14 01:10:01;;;;;;;;;;;16.50;60.10;;;;;;5039031;28;19905;-68
2021/05/14 01:12:26;;;;;;;;;;;16.50;60.10;;;;;;5038988;28;19904;-67
2021/05/14 01:14:52;;;;;;;;;;;16.50;60.10;;;;;;5039138;28;19999;-67
2021/05/14 01:17:17;;;;;;;;;;;16.50;60.10;;;;;;5056834;28;20258;-67
2021/05/14 01:19:43;;;;;;;;;;;16.50;60.10;;;;;;5057317;28;19915;-67
2021/05/14 01:22:08;;;;;;;;;;;16.50;60.20;;;;;;5056473;28;20382;-67
2021/05/14 01:24:34;;;;;;;;;;;16.40;60.10;;;;;;5038704;28;20347;-67
2021/05/14 01:27:00;;;;;;;;;;;16.50;60.20;;;;;;5038709;28;19905;-67
2021/05/14 01:29:25;;;;;;;;;;;16.50;60.20;;;;;;5056956;28;20344;-67
2021/05/14 01:31:51;;;;;;;;;;;16.50;60.20;;;;;;5072034;28;20350;-67
2021/05/14 01:34:16;;;;;;;;;;;16.50;60.20;;;;;;5056538;28;19908;-68
2021/05/14 01:36:42;;;;;;;;;;;16.40;60.20;;;;;;5056556;28;20340;-68
2021/05/14 01:39:12;;;;;;;;;;;16.40;60.20;;;;;;5055036;28;19908;-68
2021/05/14 01:41:38;;;;;;;;;;;16.40;60.30;;;;;;5056365;28;19909;-68
2021/05/14 01:44:04;;;;;;;;;;;16.40;60.30;;;;;;5056226;28;19919;-68
2021/05/14 01:46:30;;;;;;;;;;;16.30;60.30;;;;;;5056256;28;19920;-68
2021/05/14 01:48:55;;;;;;;;;;;16.40;60.40;;;;;;5038424;28;19905;-68
2021/05/14 01:51:21;;;;;;;;;;;16.30;60.50;;;;;;5056029;28;19905;-68
2021/05/14 01:53:47;;;;;;;;;;;16.30;60.50;;;;;;5038223;28;19904;-68
2021/05/14 01:56:13;;;;;;;;;;;16.20;60.10;;;;;;5038237;28;20305;-69
2021/05/14 01:58:38;;;;;;;;;;;16.20;60.70;;;;;;5056054;28;19986;-68
2021/05/14 02:01:04;;;;;;;;;;;16.20;60.70;;;;;;5056070;28;20046;-69
2021/05/14 02:03:30;;;;;;;;;;;16.20;60.70;;;;;;5038084;28;20266;-69
2021/05/14 02:05:55;;;;;;;;;;;16.10;60.60;;;;;;5037840;28;19905;-68
2021/05/14 02:08:21;;;;;;;;;;;16.10;60.60;;;;;;5056097;28;20005;-68
2021/05/14 02:10:47;;;;;;;;;;;16.10;60.70;;;;;;5037939;28;19905;-68
2021/05/14 02:13:12;;;;;;;;;;;16.10;60.70;;;;;;5055640;28;19905;-69
2021/05/14 02:15:39;;;;;;;;;;;16.10;60.80;;;;;;5055529;28;19913;-69
2021/05/14 02:18:05;;;;;;;;;;;16.00;60.80;;;;;;5037746;28;19905;-68
2021/05/14 02:20:30;;;;;;;;;;;16.00;60.80;;;;;;5055595;28;19917;-69
2021/05/14 02:22:56;;;;;;;;;;;16.00;60.80;;;;;;5037943;28;19916;-69
2021/05/14 02:25:21;;;;;;;;;;;16.00;60.80;;;;;;5055555;28;19909;-68
2021/05/14 02:27:47;;;;;;;;;;;16.00;60.90;;;;;;5037480;28;20244;-68
2021/05/14 02:30:13;;;;;;;;;;;16.00;61.00;;;;;;5055085;28;19909;-68
2021/05/14 02:32:39;;;;;;;;;;;16.00;61.00;;;;;;5064783;28;20323;-69
2021/05/14 02:35:05;;;;;;;;;;;16.00;61.00;;;;;;5063090;28;19951;-68
2021/05/14 02:37:30;;;;;;;;;;;16.00;61.00;;;;;;5045865;28;19935;-69
2021/05/14 02:39:56;;;;;;;;;;;16.00;61.00;;;;;;5064713;28;19909;-70
2021/05/14 02:42:21;;;;;;;;;;;16.00;61.10;;;;;;5062564;28;20366;-69
2021/05/14 02:44:47;;;;;;;;;;;16.00;61.10;;;;;;5064452;28;19904;-70
2021/05/14 02:47:13;;;;;;;;;;;16.00;61.10;;;;;;5044037;28;19914;-68
2021/05/14 02:49:38;;;;;;;;;;;16.00;61.20;;;;;;5071176;28;20002;-69
2021/05/14 02:52:04;;;;;;;;;;;16.00;61.20;;;;;;5044777;28;19958;-69
2021/05/14 02:54:30;;;;;;;;;;;16.00;61.20;;;;;;5047464;28;19944;-69
2021/05/14 02:56:55;;;;;;;;;;;16.00;61.20;;;;;;5063176;28;19911;-68
2021/05/14 02:59:21;;;;;;;;;;;16.00;61.20;;;;;;5064619;28;19905;-69
2021/05/14 03:01:47;;;;;;;;;;;16.00;61.20;;;;;;5065029;28;19915;-71
2021/05/14 03:04:13;;;;;;;;;;;16.00;61.30;;;;;;5062819;28;19912;-65
2021/05/14 03:06:38;;;;;;;;;;;16.00;61.30;;;;;;5043771;28;20315;-65
2021/05/14 03:09:05;;;;;;;;;;;16.00;61.40;;;;;;5064296;28;19904;-65
2021/05/14 03:11:30;;;;;;;;;;;16.00;61.40;;;;;;5061967;28;20347;-65
2021/05/14 03:13:56;;;;;;;;;;;16.00;61.40;;;;;;5045480;28;19917;-65
2021/05/14 03:16:22;;;;;;;;;;;16.00;61.50;;;;;;5045531;28;20390;-65
2021/05/14 03:18:48;;;;;;;;;;;16.00;61.60;;;;;;5043639;28;19919;-65
2021/05/14 03:21:13;;;;;;;;;;;15.90;61.70;;;;;;5063417;28;19920;-66
2021/05/14 03:23:39;;;;;;;;;;;15.90;61.80;;;;;;5045022;28;20416;-66
2021/05/14 03:26:05;;;;;;;;;;;15.90;61.80;;;;;;5042785;28;19911;-67
2021/05/14 03:28:31;;;;;;;;;;;16.00;61.80;;;;;;5068198;28;19995;-66
2021/05/14 03:30:56;;;;;;;;;;;16.00;61.90;;;;;;5034781;28;19966;-67
2021/05/14 03:33:22;;;;;;;;;;;16.00;61.90;;;;;;5052832;28;19904;-65
2021/05/14 03:35:48;;;;;;;;;;;16.10;61.90;;;;;;5053005;28;20464;-66
2021/05/14 03:38:13;;;;;;;;;;;16.10;61.90;;;;;;5034735;28;19909;-64
2021/05/14 03:40:40;;;;;;;;;;;16.20;62.00;;;;;;5034733;28;20054;-66
2021/05/14 03:43:06;;;;;;;;;;;16.20;62.10;;;;;;5052514;28;19993;-66
2021/05/14 03:45:32;;;;;;;;;;;16.20;62.10;;;;;;5052858;28;19944;-63
2021/05/14 03:47:58;;;;;;;;;;;16.30;62.10;;;;;;5052652;28;19908;-63
2021/05/14 03:50:27;;;;;;;;;;;16.30;62.20;;;;;;5052577;28;19909;-63
2021/05/14 03:52:53;;;;;;;;;;;16.30;62.20;;;;;;5034555;28;19905;-64
2021/05/14 03:55:19;;;;;;;;;;;16.40;62.20;;;;;;5040443;28;19909;-65
2021/05/14 03:57:45;;;;;;;;;;;16.40;62.10;;;;;;5046106;28;20330;-64
2021/05/14 04:00:11;;;;;;;;;;;16.50;62.10;;;;;;5045347;28;19904;-64
2021/05/14 04:02:37;;;;;;;;;;;16.60;62.10;;;;;;5046110;28;19912;-63
2021/05/14 04:05:03;;;;;;;;;;;16.60;62.10;;;;;;5065479;28;19958;-63
2021/05/14 04:07:29;;;;;;;;;;;16.70;62.10;;;;;;5046179;28;19919;-66
2021/05/14 04:15:04;;;;;;;;;;;16.90;62.10;;;;;;5066979;28;19905;-65
2021/05/14 04:17:29;;;;;;;;;;;17.00;62.00;;;;;;5047330;28;20371;-64
2021/05/14 04:19:55;;;;;;;;;;;17.00;62.00;;;;;;5048161;28;19943;-65
2021/05/14 04:22:21;;;;;;;;;;;17.10;62.00;;;;;;5048620;28;20326;-64
2021/05/14 04:24:46;;;;;;;;;;;17.20;61.90;;;;;;5049639;28;19912;-64
2021/05/14 04:27:14;;;;;;;;;;;17.20;61.90;;;;;;5048230;28;19904;-64
2021/05/14 04:29:40;;;;;;;;;;;17.30;61.90;;;;;;5048467;28;19955;-65
2021/05/14 04:32:05;;;;;;;;;;;17.40;61.90;;;;;;5046997;28;19940;-64
2021/05/14 04:34:31;;;;;;;;;;;17.50;61.80;;;;;;5052830;28;19958;-64
2021/05/14 04:36:56;;;;;;;;;;;17.60;61.80;;;;;;5076921;28;19905;-63
2021/05/14 04:39:22;;;;;;;;;;;17.60;61.70;;;;;;5049547;28;19909;-63
2021/05/14 04:41:47;;;;;;;;;;;17.60;61.70;;;;;;5048565;28;19916;-65
2021/05/14 04:44:15;;;;;;;;;;;17.60;61.70;;;;;;5047110;28;19916;-65
2021/05/14 04:46:41;;;;;;;;;;;17.60;61.70;;;;;;5046558;28;19912;-65
2021/05/14 04:49:06;;;;;;;;;;;17.60;61.80;;;;;;5049325;28;20271;-65
2021/05/14 04:51:32;;;;;;;;;;;17.50;61.70;;;;;;5045999;28;20283;-65
2021/05/14 04:53:58;;;;;;;;;;;17.50;61.80;;;;;;5039071;28;20380;-64
2021/05/14 04:56:24;;;;;;;;;;;17.40;61.80;;;;;;5057000;28;20373;-65
2021/05/14 04:58:50;;;;;;;;;;;17.50;61.80;;;;;;5047506;28;19912;-65
2021/05/14 05:01:16;;;;;;;;;;;17.50;61.90;;;;;;5065631;28;19905;-64
2021/05/14 05:03:46;;;;;;;;;;;17.50;61.90;;;;;;5063953;28;19957;-64
2021/05/14 05:06:12;;;;;;;;;;;17.50;61.80;;;;;;5047207;28;19904;-65
2021/05/14 05:08:37;;;;;;;;;;;17.60;61.90;;;;;;5047748;28;19999;-67
2021/05/14 05:11:03;;;;;;;;;;;17.60;61.80;;;;;;5045965;28;20007;-64
2021/05/14 05:13:28;;;;;;;;;;;17.70;61.90;;;;;;5064941;28;19915;-63
2021/05/14 05:15:54;;;;;;;;;;;17.70;61.80;;;;;;5064950;28;19928;-64
2021/05/14 05:18:20;;;;;;;;;;;17.80;61.90;;;;;;5046074;28;19986;-67
2021/05/14 05:20:45;;;;;;;;;;;17.80;61.90;;;;;;5047657;28;20320;-67
2021/05/14 05:23:11;;;;;;;;;;;17.90;61.90;;;;;;5071463;28;19921;-69
2021/05/14 05:25:36;;;;;;;;;;;18.00;61.80;;;;;;5062870;28;19911;-69
2021/05/14 05:28:03;;;;;;;;;;;18.00;61.70;;;;;;5057346;28;19912;-68
2021/05/14 05:30:28;;;;;;;;;;;18.10;61.80;;;;;;5070258;28;19962;-67
2021/05/14 05:32:54;;;;;;;;;;;18.20;61.80;;;;;;5036821;28;20010;-66
2021/05/14 05:35:20;;;;;;;;;;;18.20;61.70;;;;;;5036767;28;19909;-68
2021/05/14 05:37:45;;;;;;;;;;;18.40;61.70;;;;;;5036625;28;20043;-67
2021/05/14 05:40:11;;;;;;;;;;;18.40;61.60;;;;;;5036326;28;19904;-69
2021/05/14 05:42:37;;;;;;;;;;;18.40;61.60;;;;;;5036141;28;20283;-67
2021/05/14 05:45:03;;;;;;;;;;;18.40;61.60;;;;;;5054306;28;19905;-67
2021/05/14 05:47:31;;;;;;;;;;;18.40;61.60;;;;;;5036433;28;19908;-70
2021/05/14 05:49:57;;;;;;;;;;;18.40;61.60;;;;;;5072571;28;19955;-69
2021/05/14 05:52:22;;;;;;;;;;;18.50;61.60;;;;;;5063341;28;19904;-68
2021/05/14 05:54:48;;;;;;;;;;;18.50;61.60;;;;;;5047186;28;19966;-68
2021/05/14 05:57:14;;;;;;;;;;;18.50;61.70;;;;;;5046468;28;20374;-70
2021/05/14 05:59:39;;;;;;;;;;;18.50;61.70;;;;;;5061263;28;20291;-68
2021/05/14 06:02:05;;;;;;;;;;;18.60;61.70;;;;;;5069884;28;20368;-69
2021/05/14 06:04:32;;;;;;;;;;;18.70;62.30;;;;;;5069584;28;20332;-68
2021/05/14 06:06:58;;;;;;;;;;;18.80;61.70;;;;;;5036362;28;19905;-64
2021/05/14 06:09:24;;;;;;;;;;;18.90;61.60;;;;;;5044135;28;20272;-64
2021/05/14 06:11:49;;;;;;;;;;;19.00;61.50;;;;;;5045265;28;19908;-65
2021/05/14 06:14:15;;;;;;;;;;;19.00;61.50;;;;;;5063391;28;19908;-64
2021/05/14 06:16:40;;;;;;;;;;;19.10;61.50;;;;;;5058543;28;19944;-64
2021/05/14 06:19:16;;;;;;;;;;;19.10;61.40;;;;;;5036277;28;19954;-65
2021/05/14 06:21:48;;;;;;;;;;;19.10;61.40;;;;;;5046640;28;19927;-65
2021/05/14 06:24:14;;;;;;;;;;;19.00;61.40;;;;;;5062229;28;20011;-65
2021/05/14 06:26:42;;;;;;;;;;;19.00;61.50;;;;;;5047219;28;19919;-64
2021/05/14 06:29:08;;;;;;;;;;;18.90;61.50;;;;;;5042764;28;19947;-64
2021/05/14 06:31:34;;;;;;;;;;;18.80;61.50;;;;;;5047588;28;19948;-64
2021/05/14 06:34:00;;;;;;;;;;;18.80;61.50;;;;;;5037184;28;19905;-63
2021/05/14 06:36:26;;;;;;;;;;;18.80;61.50;;;;;;5041062;28;20007;-63
2021/05/14 06:38:51;;;;;;;;;;;18.80;61.50;;;;;;5044319;28;19930;-63
2021/05/14 06:41:17;;;;;;;;;;;18.90;61.50;;;;;;5046443;28;20612;-63
2021/05/14 06:43:42;;;;;;;;;;;19.00;61.50;;;;;;5044652;28;20054;-64
2021/05/14 06:46:08;;;;;;;;;;;19.10;61.50;;;;;;5051319;28;19912;-63
2021/05/14 06:48:33;;;;;;;;;;;19.20;61.40;;;;;;5034985;28;19904;-63
2021/05/14 06:50:59;;;;;;;;;;;19.30;61.30;;;;;;5035162;28;19905;-62
2021/05/14 06:53:25;;;;;;;;;;;19.40;61.30;;;;;;5034812;28;19912;-63
2021/05/14 06:55:51;;;;;;;;;;;19.40;61.20;;;;;;5035072;28;19967;-63
2021/05/14 06:58:17;;;;;;;;;;;19.60;61.30;;;;;;5052662;28;19911;-63
2021/05/14 07:00:43;;;;;;;;;;;19.60;61.20;;;;;;5034682;28;19912;-63
2021/05/14 07:03:08;;;;;;;;;;;19.70;61.10;;;;;;5034761;28;19912;-63
2021/05/14 07:05:34;;;;;;;;;;;19.80;61.20;;;;;;5034550;28;20369;-63
2021/05/14 07:08:00;;;;;;;;;;;19.90;61.20;;;;;;5034543;28;20679;-64
2021/05/14 07:10:27;;;;;;;;;;;19.90;61.10;;;;;;5034774;28;19905;-63
2021/05/14 07:12:53;;;;;;;;;;;20.00;61.10;;;;;;5034679;28;20003;-63
2021/05/14 07:15:18;;;;;;;;;;;20.10;61.00;;;;;;5034599;28;19908;-63
2021/05/14 07:17:44;;;;;;;;;;;20.30;60.90;;;;;;5034636;28;19919;-63
2021/05/14 07:20:10;;;;;;;;;;;20.30;60.80;;;;;;5039977;28;19916;-64
2021/05/14 07:22:35;;;;;;;;;;;20.40;60.80;;;;;;5042285;28;19960;-68
2021/05/14 07:25:02;;;;;;;;;;;20.40;60.70;;;;;;5064564;28;19908;-64
2021/05/14 07:27:27;;;;;;;;;;;20.50;60.70;;;;;;5048623;28;19908;-63
2021/05/14 07:29:53;;;;;;;;;;;20.50;60.70;;;;;;5049048;28;19904;-63
2021/05/14 07:32:18;;;;;;;;;;;20.50;60.70;;;;;;5045851;28;19991;-63
2021/05/14 07:34:44;;;;;;;;;;;20.50;60.70;;;;;;5069579;28;20412;-64
2021/05/14 07:37:09;;;;;;;;;;;20.40;60.60;;;;;;5042461;28;19905;-64
2021/05/14 07:39:36;;;;;;;;;;;20.40;60.60;;;;;;5043595;28;19908;-63
2021/05/14 07:42:01;;;;;;;;;;;20.40;60.70;;;;;;5043836;28;19953;-63
2021/05/14 07:44:27;;;;;;;;;;;20.40;60.60;;;;;;5061917;28;20006;-62
2021/05/14 07:46:52;;;;;;;;;;;20.40;60.60;;;;;;5059701;28;20286;-63
2021/05/14 07:49:18;;;;;;;;;;;20.50;60.60;;;;;;5044831;28;19912;-64
2021/05/14 07:51:44;;;;;;;;;;;20.60;60.60;;;;;;5063047;28;20409;-63
2021/05/14 07:54:09;;;;;;;;;;;20.70;60.50;;;;;;5044117;28;19932;-63
2021/05/14 07:56:35;;;;;;;;;;;20.80;60.50;;;;;;5058035;28;19915;-63
2021/05/14 07:59:00;;;;;;;;;;;20.80;60.40;;;;;;5039890;28;19988;-63
2021/05/14 08:01:26;;;;;;;;;;;20.90;60.40;;;;;;5043701;28;19908;-63
2021/05/14 08:03:53;;;;;;;;;;;20.80;60.30;;;;;;5050345;28;19916;-64
2021/05/14 08:06:19;;;;;;;;;;;20.80;60.30;;;;;;5045792;28;19966;-64
2021/05/14 08:08:45;;;;;;;;;;;20.80;60.30;;;;;;5042775;28;19912;-64
2021/05/14 08:11:10;;;;;;;;;;;20.90;60.40;;;;;;5042230;28;19908;-65
2021/05/14 08:13:36;;;;;;;;;;;21.00;60.30;;;;;;5042064;28;19904;-64
2021/05/14 08:16:02;;;;;;;;;;;21.10;60.30;;;;;;5041926;28;20405;-68
2021/05/14 08:18:27;;;;;;;;;;;21.10;60.20;;;;;;5043201;28;19944;-64
2021/05/14 08:20:53;;;;;;;;;;;21.10;60.20;;;;;;5041153;28;19924;-64
2021/05/14 08:23:22;;;;;;;;;;;21.20;60.20;;;;;;5043246;28;20361;-64
2021/05/14 08:25:48;;;;;;;;;;;21.20;60.10;;;;;;5043507;28;20000;-63
2021/05/14 08:28:14;;;;;;;;;;;21.30;60.00;;;;;;5043330;28;20030;-65
2021/05/14 08:30:41;;;;;;;;;;;21.40;60.00;;;;;;5045318;28;19912;-64
2021/05/14 08:33:06;;;;;;;;;;;21.40;59.90;;;;;;5043357;28;19983;-63
2021/05/14 08:35:32;;;;;;;;;;;21.40;59.90;;;;;;5042434;28;20335;-65
2021/05/14 08:37:58;;;;;;;;;;;21.40;59.80;;;;;;5038968;28;19926;-65
2021/05/14 08:40:23;;;;;;;;;;;21.40;59.70;;;;;;5041250;28;19908;-65
2021/05/14 08:42:49;;;;;;;;;;;21.40;59.60;;;;;;5044358;28;20012;-65
2021/05/14 08:45:15;;;;;;;;;;;21.40;59.60;;;;;;5043818;28;19999;-66
2021/05/14 08:47:41;;;;;;;;;;;21.40;59.60;;;;;;5044222;28;19939;-63
2021/05/14 08:50:07;;;;;;;;;;;21.40;59.50;;;;;;5064228;28;19954;-64
2021/05/14 08:52:34;;;;;;;;;;;21.50;59.40;;;;;;5053082;28;19908;-64
2021/05/14 08:55:01;;;;;;;;;;;21.50;59.40;;;;;;5044033;28;19912;-64
2021/05/14 08:57:26;;;;;;;;;;;21.50;59.50;;;;;;5041991;28;20379;-67
2021/05/14 08:59:52;;;;;;;;;;;21.40;59.40;;;;;;5043628;28;19905;-66
2021/05/14 09:02:18;;;;;;;;;;;21.40;59.40;;;;;;5045878;28;19905;-65
2021/05/14 09:04:44;;;;;;;;;;;21.50;59.50;;;;;;5047350;28;19912;-66
2021/05/14 09:07:18;;;;;;;;;;;21.40;59.60;;;;;;5046646;28;19916;-65
2021/05/14 09:10:03;;;;;;;;;;;21.40;59.60;;;;;;5045789;28;20378;-64
2021/05/14 09:12:35;;;;;;;;;;;21.20;59.50;;;;;;5047158;28;19908;-64
2021/05/14 09:15:20;;;;;;;;;;;21.20;59.60;;;;;;5046688;28;19952;-64
2021/05/14 09:18:04;;;;;;;;;;;21.20;59.60;;;;;;5050116;28;19958;-64
2021/05/14 09:20:34;;;;;;;;;;;21.20;59.50;;;;;;5047818;28;20037;-64
2021/05/14 09:23:01;;;;;;;;;;;21.20;59.50;;;;;;5064349;28;19916;-64
2021/05/14 09:25:27;;;;;;;;;;;21.30;59.60;;;;;;5046484;28;20262;-64
2021/05/14 09:27:52;;;;;;;;;;;21.20;59.50;;;;;;5047882;28;19999;-65
2021/05/14 09:30:18;;;;;;;;;;;21.20;59.60;;;;;;5065372;28;19919;-66
2021/05/14 09:32:44;;;;;;;;;;;21.10;59.50;;;;;;5065389;28;20414;-65
2021/05/14 09:35:09;;;;;;;;;;;21.10;59.60;;;;;;5045763;28;19955;-67
2021/05/14 09:37:45;;;;;;;;;;;21.20;59.60;;;;;;5047421;28;19909;-64
2021/05/14 09:40:14;;;;;;;;;;;21.20;59.50;;;;;;5045078;28;19948;-63
2021/05/14 09:42:40;;;;;;;;;;;21.30;59.50;;;;;;5063741;28;19913;-64
2021/05/14 09:45:32;;;;;;;;;;;21.30;59.40;;;;;;5046899;28;19905;-65
2021/05/14 09:47:58;;;;;;;;;;;21.30;59.40;;;;;;5063374;28;19931;-65
2021/05/14 09:50:31;;;;;;;;;;;21.40;59.30;;;;;;5046687;28;19931;-64
2021/05/14 09:53:26;;;;;;;;;;;21.40;59.30;;;;;;5050328;28;19904;-65
2021/05/14 09:55:59;;;;;;;;;;;21.40;59.40;;;;;;5053561;28;19958;-65
2021/05/14 09:58:26;;;;;;;;;;;21.40;59.20;;;;;;5072817;28;19908;-67
2021/05/14 10:00:52;;;;;;;;;;;21.50;59.10;;;;;;5046204;28;19913;-65
2021/05/14 10:03:19;;;;;;;;;;;21.60;59.00;;;;;;5062727;28;19927;-66
2021/05/14 10:05:45;;;;;;;;;;;21.70;59.00;;;;;;5055915;28;20394;-66
2021/05/14 10:08:14;;;;;;;;;;;21.70;59.00;;;;;;5074003;28;19919;-63
2021/05/14 10:10:39;;;;;;;;;;;21.80;59.00;;;;;;5056133;28;19904;-65
2021/05/14 10:13:06;;;;;;;;;;;21.90;59.00;;;;;;5056163;28;19981;-66
2021/05/14 10:15:32;;;;;;;;;;;21.90;58.80;;;;;;5057377;28;19904;-67
2021/05/14 10:17:59;;;;;;;;;;;21.90;58.70;;;;;;5056153;28;19965;-67
2021/05/14 10:20:28;;;;;;;;;;;21.90;58.60;;;;;;5042905;28;19986;-65
2021/05/14 10:22:55;;;;;;;;;;;21.90;58.60;;;;;;5043217;28;19916;-66
2021/05/14 10:25:50;;;;;;;;;;;22.00;58.60;;;;;;5048693;28;19909;-66
2021/05/14 10:28:24;;;;;;;;;;;22.00;58.50;;;;;;5026814;28;20014;-66
2021/05/14 10:31:05;;;;;;;;;;;22.10;58.50;;;;;;5039795;28;19904;-66
2021/05/14 10:33:41;;;;;;;;;;;22.20;58.20;;;;;;5052643;28;19904;-66
2021/05/14 10:36:33;;;;;;;;;;;22.30;58.20;;;;;;5043886;28;20360;-66
2021/05/14 10:39:01;;;;;;;;;;;22.40;58.00;;;;;;5036612;28;19909;-65
2021/05/14 10:41:27;;;;;;;;;;;22.50;57.90;;;;;;5045902;28;19947;-65
2021/05/14 10:44:06;;;;;;;;;;;22.60;57.90;;;;;;5045990;28;19944;-67
2021/05/14 10:46:32;;;;;;;;;;;22.70;57.90;;;;;;5044646;28;19926;-66
2021/05/14 10:49:00;;;;;;;;;;;22.70;57.80;;;;;;5043808;28;19917;-65
2021/05/14 10:51:41;;;;;;;;;;;22.70;57.70;;;;;;5061466;28;20343;-65
2021/05/14 10:54:06;;;;;;;;;;;22.70;57.70;;;;;;5044010;28;19908;-65
2021/05/14 10:56:32;;;;;;;;;;;22.60;57.60;;;;;;5044016;28;20275;-66
2021/05/14 10:58:57;;;;;;;;;;;22.60;57.50;;;;;;5038847;28;19915;-64
2021/05/14 11:01:31;;;;;;;;;;;22.70;57.60;;;;;;5067713;28;19904;-64
2021/05/14 11:03:57;;;;;;;;;;;22.90;57.60;;;;;;5039109;28;19912;-64
2021/05/14 11:06:24;;;;;;;;;;;23.10;57.40;;;;;;5042709;28;20243;-64
2021/05/14 11:09:00;;;;;;;;;;;23.30;57.20;;;;;;5064081;28;19915;-65
2021/05/14 11:11:25;;;;;;;;;;;23.60;56.90;;;;;;5046208;28;19904;-66
2021/05/14 11:13:52;;;;;;;;;;;23.80;56.60;;;;;;5044417;28;19908;-64
2021/05/14 11:16:29;;;;;;;;;;;23.70;56.60;;;;;;5042833;28;19967;-64
2021/05/14 11:18:55;;;;;;;;;;;23.60;56.70;;;;;;5042790;28;19930;-65
2021/05/14 11:21:21;;;;;;;;;;;23.60;56.80;;;;;;5045131;28;19921;-65
2021/05/14 11:23:46;;;;;;;;;;;23.60;56.80;;;;;;5043592;28;20007;-66
2021/05/14 11:26:18;;;;;;;;;;;23.50;56.70;;;;;;5045463;28;19950;-66
2021/05/14 11:28:48;;;;;;;;;;;23.50;56.60;;;;;;5045532;28;20441;-65
2021/05/14 11:31:17;;;;;;;;;;;23.50;56.70;;;;;;5061963;28;19904;-65
2021/05/14 11:33:47;;;;;;;;;;;23.50;56.80;;;;;;5043777;28;19904;-66
2021/05/14 11:36:13;;;;;;;;;;;23.60;56.70;;;;;;5043666;28;19908;-66
2021/05/14 11:38:48;;;;;;;;;;;23.70;56.60;;;;;;5044417;28;19999;-66
2021/05/14 11:41:15;;;;;;;;;;;23.80;56.60;;;;;;5044063;28;19911;-66
2021/05/14 11:43:51;;;;;;;;;;;23.90;56.50;;;;;;5044208;28;20014;-65
2021/05/14 11:46:16;;;;;;;;;;;24.10;56.40;;;;;;5045588;28;20347;-65
2021/05/14 11:48:42;;;;;;;;;;;24.20;56.10;;;;;;5069762;28;19913;-64
2021/05/14 11:51:07;;;;;;;;;;;24.40;55.90;;;;;;5043252;28;20275;-65
2021/05/14 11:53:33;;;;;;;;;;;24.20;55.50;;;;;;5045127;28;19908;-64
2021/05/14 11:55:58;;;;;;;;;;;24.10;55.30;;;;;;5069449;28;19991;-66
2021/05/14 11:58:25;;;;;;;;;;;24.00;55.10;;;;;;5044057;28;19955;-66
2021/05/14 12:00:54;;;;;;;;;;;23.80;55.00;;;;;;5044562;28;19916;-65
2021/05/14 12:03:22;;;;;;;;;;;23.80;55.10;;;;;;5045116;28;19919;-67
2021/05/14 12:05:48;;;;;;;;;;;23.80;55.10;;;;;;5045104;28;20290;-65
2021/05/14 12:08:17;;;;;;;;;;;23.80;55.10;;;;;;5044774;28;19925;-66
2021/05/14 12:10:56;;;;;;;;;;;23.80;55.10;;;;;;5050549;28;19905;-65
2021/05/14 12:13:26;;;;;;;;;;;23.90;55.00;;;;;;5040448;28;19912;-66
2021/05/14 12:15:58;;;;;;;;;;;23.80;54.80;;;;;;5042498;28;19904;-65
2021/05/14 12:18:24;;;;;;;;;;;23.80;54.70;;;;;;5042362;28;20405;-69
2021/05/14 12:20:50;;;;;;;;;;;23.80;54.60;;;;;;5040539;28;20012;-66
2021/05/14 12:23:20;;;;;;;;;;;24.00;54.50;;;;;;5040031;28;20379;-67
2021/05/14 12:25:47;;;;;;;;;;;24.30;54.10;;;;;;5064573;28;19908;-68
2021/05/14 12:28:28;;;;;;;;;;;24.30;54.00;;;;;;5064286;28;20359;-67
2021/05/14 12:30:53;;;;;;;;;;;24.40;53.90;;;;;;5053164;28;19993;-68
2021/05/14 12:33:19;;;;;;;;;;;24.60;53.70;;;;;;5043949;28;19942;-68
2021/05/14 12:36:17;;;;;;;;;;;25.20;53.10;;;;;;5061750;28;20448;-65
2021/05/14 12:38:43;;;;;;;;;;;25.50;52.50;;;;;;5041154;28;19904;-66
2021/05/14 12:41:18;;;;;;;;;;;25.80;52.30;;;;;;5066811;28;19905;-67
2021/05/14 12:43:44;;;;;;;;;;;25.50;52.50;;;;;;5059504;28;20470;-66
2021/05/14 12:46:09;;;;;;;;;;;25.30;52.90;;;;;;5041865;28;19995;-65
2021/05/14 12:48:35;;;;;;;;;;;25.20;53.20;;;;;;5061550;28;19950;-65
2021/05/14 12:51:00;;;;;;;;;;;25.20;53.70;;;;;;5065786;28;19943;-67
2021/05/14 12:53:26;;;;;;;;;;;25.40;52.80;;;;;;5067624;28;19912;-65
2021/05/14 12:55:51;;;;;;;;;;;25.40;52.50;;;;;;5044936;28;19915;-65
2021/05/14 12:58:18;;;;;;;;;;;25.50;52.20;;;;;;5061414;28;19920;-63
2021/05/14 13:00:43;;;;;;;;;;;25.60;52.00;;;;;;5061729;28;19995;-65
2021/05/14 13:03:10;;;;;;;;;;;25.50;52.10;;;;;;5060421;28;20011;-65
2021/05/14 13:05:39;;;;;;;;;;;25.40;52.30;;;;;;5047656;28;19908;-62
2021/05/14 13:08:14;;;;;;;;;;;25.20;52.30;;;;;;5066756;28;19984;-63
2021/05/14 13:10:40;;;;;;;;;;;25.00;53.00;;;;;;5040386;28;19924;-64
2021/05/14 13:13:06;;;;;;;;;;;24.90;52.40;;;;;;5041395;28;19927;-62
2021/05/14 13:15:31;;;;;;;;;;;24.90;52.50;;;;;;5046417;28;19904;-62
2021/05/14 13:17:57;;;;;;;;;;;25.00;52.70;;;;;;5065673;28;20359;-62
2021/05/14 13:20:23;;;;;;;;;;;25.00;52.50;;;;;;5045601;28;19923;-61
2021/05/14 13:22:48;;;;;;;;;;;25.00;52.60;;;;;;5046599;28;19927;-61
2021/05/14 13:25:14;;;;;;;;;;;25.20;52.40;;;;;;5072001;28;19966;-62
2021/05/14 13:27:40;;;;;;;;;;;25.50;51.90;;;;;;5063700;28;19959;-61
2021/05/14 13:30:10;;;;;;;;;;;25.60;51.60;;;;;;5046732;28;19915;-62
2021/05/14 13:32:36;;;;;;;;;;;25.60;51.60;;;;;;5046219;28;20327;-62
2021/05/14 13:35:03;;;;;;;;;;;25.60;51.70;;;;;;5061214;28;19951;-60
2021/05/14 13:37:29;;;;;;;;;;;25.40;51.80;;;;;;5046082;28;19950;-62
2021/05/14 13:39:54;;;;;;;;;;;25.60;51.70;;;;;;5047308;28;19930;-62
2021/05/14 13:42:20;;;;;;;;;;;25.70;51.40;;;;;;5063107;28;20407;-62
2021/05/14 13:44:45;;;;;;;;;;;25.80;51.10;;;;;;5068183;28;19916;-63
2021/05/14 13:47:11;;;;;;;;;;;26.00;50.80;;;;;;5068116;28;19904;-61
2021/05/14 13:49:36;;;;;;;;;;;26.00;50.60;;;;;;5058235;28;19909;-64
2021/05/14 13:52:02;;;;;;;;;;;26.00;50.60;;;;;;5058076;28;19904;-60
2021/05/14 13:54:28;;;;;;;;;;;25.80;50.50;;;;;;5044620;28;19904;-60
2021/05/14 13:56:54;;;;;;;;;;;25.70;50.40;;;;;;5049787;28;19927;-66
2021/05/14 13:59:19;;;;;;;;;;;25.50;50.40;;;;;;5048981;28;19987;-62
2021/05/14 14:01:45;;;;;;;;;;;25.50;50.60;;;;;;5067296;28;19908;-62
2021/05/14 14:04:10;;;;;;;;;;;25.60;50.60;;;;;;5067215;28;20324;-61
2021/05/14 14:06:36;;;;;;;;;;;25.60;50.20;;;;;;5066618;28;19909;-63
2021/05/14 14:09:01;;;;;;;;;;;26.00;49.70;;;;;;5066899;28;19908;-62
2021/05/14 14:11:27;;;;;;;;;;;26.20;49.50;;;;;;5065493;28;20053;-62
2021/05/14 14:13:53;;;;;;;;;;;26.70;49.20;;;;;;5060115;28;20374;-62
2021/05/14 14:16:18;;;;;;;;;;;26.80;48.70;;;;;;5061978;28;19913;-62
2021/05/14 14:18:44;;;;;;;;;;;26.50;48.70;;;;;;5061232;28;19916;-62
2021/05/14 14:21:09;;;;;;;;;;;26.40;48.90;;;;;;5060820;28;19928;-62